Time;durP1;ratioP1;P1;durP2;ratioP2;P2;SDS_P1;SDS_P2;PMS_P1;PMS_P2;Temp;Humidity;BMP_temperature;BMP_pressure;BME280_temperature;BME280_humidity;BME280_pressure;Samples;Min_cycle;Max_cycle;Signal;HPM_P1;HPM_P2
2022/03/20 00:01:02;;;;;;;9.10;4.53;;;4.70;99.90;;;;;;5107050;28;19923;-82
2022/03/20 00:03:28;;;;;;;;;;;4.60;99.90;;;;;;5107248;28;20040;-84
2022/03/20 00:05:54;;;;;;;8.95;5.15;;;4.50;99.90;;;;;;5099950;28;19924;-83
2022/03/20 00:08:20;;;;;;;;;;;4.40;99.90;;;;;;5100522;28;20066;-83
2022/03/20 00:10:50;;;;;;;8.05;4.90;;;4.40;99.90;;;;;;5094690;28;19927;-85
2022/03/20 00:13:25;;;;;;;10.50;5.45;;;4.30;99.90;;;;;;5095462;28;20221;-85
2022/03/20 00:15:52;;;;;;;8.10;4.82;;;4.10;99.90;;;;;;5104856;28;20092;-85
2022/03/20 00:18:26;;;;;;;9.20;5.20;;;4.10;99.90;;;;;;5092573;28;20048;-85
2022/03/20 00:21:00;;;;;;;7.43;5.43;;;4.00;99.90;;;;;;5092747;28;20036;-86
2022/03/20 00:23:26;;;;;;;8.48;5.13;;;4.00;99.90;;;;;;5092363;28;20055;-86
2022/03/20 00:25:54;;;;;;;7.80;5.07;;;4.00;99.90;;;;;;5092260;28;20098;-86
2022/03/20 00:28:23;;;;;;;8.90;4.93;;;4.00;99.90;;;;;;5092483;28;20039;-86
2022/03/20 00:30:49;;;;;;;9.07;5.40;;;4.00;99.90;;;;;;5133616;28;20050;-86
2022/03/20 00:33:15;;;;;;;;;;;3.90;99.90;;;;;;5135245;27;20043;-86
2022/03/20 00:35:41;;;;;;;8.10;5.13;;;3.90;99.90;;;;;;5153848;27;19925;-86
2022/03/20 00:38:07;;;;;;;;;;;3.90;99.90;;;;;;5154538;27;20197;-86
2022/03/20 00:40:34;;;;;;;12.60;5.72;;;3.90;99.90;;;;;;5153807;27;20014;-86
2022/03/20 00:42:59;;;;;;;8.50;4.95;;;3.80;99.90;;;;;;5154253;27;20391;-86
2022/03/20 00:45:26;;;;;;;;;;;3.90;99.90;;;;;;5154461;27;20042;-87
2022/03/20 00:47:52;;;;;;;8.50;4.93;;;3.80;99.90;;;;;;5153693;27;19919;-87
2022/03/20 00:50:17;;;;;;;10.95;5.55;;;3.80;99.90;;;;;;5133265;27;20451;-87
2022/03/20 00:52:43;;;;;;;8.57;4.80;;;3.80;99.90;;;;;;5153953;27;20035;-87
2022/03/20 00:55:11;;;;;;;;;;;3.80;99.90;;;;;;5153647;27;20030;-85
2022/03/20 00:57:37;;;;;;;9.65;5.40;;;3.80;99.90;;;;;;5153877;27;19922;-86
2022/03/20 01:00:06;;;;;;;;;;;3.70;99.90;;;;;;5154179;27;20049;-85
2022/03/20 01:02:42;;;;;;;10.38;5.22;;;3.60;99.90;;;;;;5153668;27;19915;-86
2022/03/20 01:05:09;;;;;;;9.00;5.18;;;3.60;99.90;;;;;;5135396;27;20035;-86
2022/03/20 01:07:36;;;;;;;11.48;5.72;;;3.60;99.90;;;;;;5113934;28;20043;-86
2022/03/20 01:10:04;;;;;;;9.25;5.38;;;3.60;99.90;;;;;;5114984;28;20043;-87
2022/03/20 01:12:33;;;;;;;9.60;5.65;;;3.50;99.90;;;;;;5133363;27;20044;-87
2022/03/20 01:15:00;;;;;;;8.80;5.90;;;3.50;99.90;;;;;;5118828;27;20043;-86
2022/03/20 01:17:25;;;;;;;8.90;5.50;;;3.50;99.90;;;;;;5136831;27;20043;-86
2022/03/20 01:19:51;;;;;;;;;;;3.40;99.90;;;;;;5150263;27;20038;-85
2022/03/20 01:22:17;;;;;;;10.85;5.80;;;3.40;99.90;;;;;;5156542;27;19929;-85
2022/03/20 01:24:42;;;;;;;10.05;5.47;;;3.50;99.90;;;;;;5157291;27;20091;-85
2022/03/20 01:27:09;;;;;;;;;;;3.40;99.90;;;;;;5139004;27;20053;-85
2022/03/20 01:29:34;;;;;;;10.68;5.47;;;3.40;99.90;;;;;;5156711;27;19926;-85
2022/03/20 01:32:00;;;;;;;;;;;3.30;99.90;;;;;;5139034;27;20046;-86
2022/03/20 01:34:27;;;;;;;8.80;5.47;;;3.30;99.90;;;;;;5146512;27;19919;-87
2022/03/20 01:36:52;;;;;;;9.45;5.50;;;3.30;99.90;;;;;;5142180;27;20121;-86
2022/03/20 01:39:18;;;;;;;;;;;3.30;99.90;;;;;;5157729;27;20073;-84
2022/03/20 01:41:46;;;;;;;9.38;4.75;;;3.30;99.90;;;;;;5157027;27;20515;-85
2022/03/20 01:44:11;;;;;;;17.27;5.75;;;3.30;99.90;;;;;;5156186;27;20038;-86
2022/03/20 01:46:37;;;;;;;;;;;3.20;99.90;;;;;;5157436;27;20046;-86
2022/03/20 01:49:02;;;;;;;10.40;5.88;;;3.20;99.90;;;;;;5155596;27;19919;-86
2022/03/20 01:54:14;;;;;;;11.48;6.15;;;3.20;99.90;;;;;;5137867;27;19919;-86
2022/03/20 01:56:45;;;;;;;10.05;5.80;;;3.30;99.90;;;;;;5156309;27;20043;-86
2022/03/20 01:59:11;;;;;;;7.82;5.30;;;3.30;99.90;;;;;;5154603;27;20048;-86
2022/03/20 02:01:36;;;;;;;;;;;3.30;99.90;;;;;;5138368;27;20385;-86
2022/03/20 02:04:02;;;;;;;11.25;5.50;;;3.40;99.90;;;;;;5156112;27;19915;-86
2022/03/20 02:06:27;;;;;;;10.45;5.45;;;3.30;99.90;;;;;;5156761;27;20600;-86
2022/03/20 02:08:56;;;;;;;;;;;3.40;99.90;;;;;;5137104;27;20031;-86
2022/03/20 02:11:25;;;;;;;12.60;6.20;;;3.40;99.90;;;;;;5155463;27;19919;-84
2022/03/20 02:13:51;;;;;;;10.15;6.05;;;3.40;99.90;;;;;;5156255;27;20564;-85
2022/03/20 02:16:16;;;;;;;;;;;3.40;99.90;;;;;;5137888;27;20078;-86
2022/03/20 02:18:43;;;;;;;11.10;5.22;;;3.30;99.90;;;;;;5155817;27;19919;-86
2022/03/20 02:21:09;;;;;;;10.27;5.32;;;3.30;99.90;;;;;;5156149;27;20054;-85
2022/03/20 02:23:34;;;;;;;;;;;3.30;99.90;;;;;;5137384;27;20042;-85
2022/03/20 02:26:03;;;;;;;11.00;5.55;;;3.40;99.90;;;;;;5153577;27;19919;-87
2022/03/20 02:28:31;;;;;;;10.13;5.50;;;3.30;99.90;;;;;;5136981;27;20117;-85
2022/03/20 02:30:57;;;;;;;10.45;6.20;;;3.30;99.90;;;;;;5156354;27;20050;-86
2022/03/20 02:33:27;;;;;;;;;;;3.30;99.90;;;;;;5155356;27;20453;-86
2022/03/20 02:35:53;;;;;;;9.73;5.60;;;3.30;99.90;;;;;;5156000;27;19919;-86
2022/03/20 02:38:20;;;;;;;;;;;3.30;99.90;;;;;;5156030;27;20047;-86
2022/03/20 02:40:46;;;;;;;10.68;6.20;;;3.30;99.90;;;;;;5151450;27;19928;-86
2022/03/20 02:43:12;;;;;;;10.82;5.65;;;3.20;99.90;;;;;;5116146;27;20391;-86
2022/03/20 02:45:37;;;;;;;;;;;3.20;99.90;;;;;;5116841;27;20046;-86
2022/03/20 02:48:04;;;;;;;8.95;5.45;;;3.20;99.90;;;;;;5135142;27;19927;-86
2022/03/20 02:50:36;;;;;;;10.98;6.35;;;3.10;99.90;;;;;;5116464;27;20538;-86
2022/03/20 02:53:13;;;;;;;11.48;5.70;;;3.10;99.90;;;;;;5134224;27;20043;-85
2022/03/20 02:55:40;;;;;;;10.48;5.90;;;3.00;99.90;;;;;;5152496;27;20054;-86
2022/03/20 02:58:12;;;;;;;10.98;6.10;;;3.00;99.90;;;;;;5154926;27;20058;-86
2022/03/20 03:00:40;;;;;;;12.05;6.55;;;3.00;99.90;;;;;;5154937;27;20046;-87
2022/03/20 03:03:11;;;;;;;13.68;6.40;;;2.90;99.90;;;;;;5154916;27;20045;-86
2022/03/20 03:05:38;;;;;;;12.27;6.63;;;2.90;99.90;;;;;;5153356;27;20050;-86
2022/03/20 03:10:58;;;;;;;12.85;6.30;;;2.90;99.90;;;;;;5144844;27;20434;-85
2022/03/20 03:13:35;;;;;;;11.20;6.68;;;2.80;99.90;;;;;;5146463;27;20039;-86
2022/03/20 03:16:04;;;;;;;13.20;6.35;;;2.80;99.90;;;;;;5142168;27;20058;-86
2022/03/20 03:18:30;;;;;;;13.63;7.25;;;2.80;99.90;;;;;;5152681;27;20034;-86
2022/03/20 03:20:56;;;;;;;;;;;2.80;99.90;;;;;;5153114;27;20043;-87
2022/03/20 03:23:24;;;;;;;14.70;6.90;;;2.80;99.90;;;;;;5154902;27;19964;-88
2022/03/20 03:25:50;;;;;;;13.63;7.50;;;2.80;99.90;;;;;;5151802;27;20449;-86
2022/03/20 03:28:16;;;;;;;;;;;2.80;99.90;;;;;;5153051;27;20173;-87
2022/03/20 03:30:44;;;;;;;15.10;7.50;;;2.70;99.90;;;;;;5136117;27;19919;-86
2022/03/20 03:33:11;;;;;;;11.95;7.50;;;2.70;99.90;;;;;;5154453;27;20042;-86
2022/03/20 03:35:44;;;;;;;13.88;7.55;;;2.70;99.90;;;;;;5140494;27;20066;-87
2022/03/20 03:38:17;;;;;;;13.88;8.23;;;2.70;99.90;;;;;;5133785;27;20117;-87
2022/03/20 03:40:44;;;;;;;14.93;7.43;;;2.70;99.90;;;;;;5134054;27;20084;-87
2022/03/20 03:43:11;;;;;;;13.20;6.95;;;2.70;99.90;;;;;;5114830;27;20051;-87
2022/03/20 03:45:39;;;;;;;13.60;8.10;;;2.60;99.90;;;;;;5115967;28;20043;-87
2022/03/20 03:48:05;;;;;;;13.25;7.43;;;2.70;99.90;;;;;;5133864;27;20088;-87
2022/03/20 03:50:31;;;;;;;;;;;2.70;99.90;;;;;;5146415;27;20074;-88
2022/03/20 03:52:56;;;;;;;13.02;7.60;;;2.70;99.90;;;;;;5154131;27;19961;-87
2022/03/20 03:55:22;;;;;;;;;;;2.60;99.90;;;;;;5154899;27;20461;-87
2022/03/20 03:57:49;;;;;;;17.65;8.95;;;2.70;99.90;;;;;;5154248;27;19919;-87
2022/03/20 04:00:17;;;;;;;15.32;8.60;;;2.60;99.90;;;;;;5152704;27;20110;-86
2022/03/20 04:02:42;;;;;;;15.25;8.43;;;2.60;99.90;;;;;;5154675;27;20042;-86
2022/03/20 04:05:08;;;;;;;;;;;2.60;99.90;;;;;;5154268;27;20045;-86
2022/03/20 04:07:35;;;;;;;16.17;8.57;;;2.60;99.90;;;;;;5154604;27;19919;-86
2022/03/20 04:10:02;;;;;;;14.23;9.05;;;2.60;99.90;;;;;;5137286;27;20101;-85
2022/03/20 04:12:29;;;;;;;13.77;8.63;;;2.50;99.90;;;;;;5135864;27;20490;-87
2022/03/20 04:14:57;;;;;;;17.75;9.27;;;2.60;99.90;;;;;;5154745;27;20070;-87
2022/03/20 04:17:23;;;;;;;15.88;9.10;;;2.60;99.90;;;;;;5133615;27;20488;-87
2022/03/20 04:19:51;;;;;;;17.15;9.32;;;2.60;99.90;;;;;;5154507;27;20042;-87
2022/03/20 04:22:18;;;;;;;;;;;2.60;99.90;;;;;;5154809;27;20034;-87
2022/03/20 04:24:44;;;;;;;18.30;8.68;;;2.60;99.90;;;;;;5153327;27;20289;-86
2022/03/20 04:27:11;;;;;;;;;;;2.50;99.90;;;;;;5154320;27;20054;-87
2022/03/20 04:29:37;;;;;;;;;;;2.50;99.90;;;;;;5154618;27;19926;-86
2022/03/20 04:32:03;;;;;;;16.75;9.38;;;2.50;99.90;;;;;;5142374;27;19919;-87
2022/03/20 04:34:29;;;;;;;;;;;2.40;99.90;;;;;;5134076;28;20393;-87
2022/03/20 04:36:56;;;;;;;15.50;8.77;;;2.40;99.90;;;;;;5133815;28;19926;-87
2022/03/20 04:39:23;;;;;;;20.88;9.68;;;2.30;99.90;;;;;;5115114;27;20057;-87
2022/03/20 04:41:49;;;;;;;16.80;9.70;;;2.30;99.90;;;;;;5154063;27;20043;-87
2022/03/20 04:44:15;;;;;;;;;;;2.30;99.90;;;;;;5154168;27;20405;-87
2022/03/20 04:46:41;;;;;;;15.10;9.02;;;2.30;99.90;;;;;;5147317;27;19920;-87
2022/03/20 05:00:06;;;;;;;16.67;9.85;;;2.30;99.90;;;;;;5156981;27;20043;-86
2022/03/20 05:02:31;;;;;;;16.92;10.20;;;2.30;99.90;;;;;;5144623;27;20049;-86
2022/03/20 05:04:57;;;;;;;;;;;2.30;99.90;;;;;;5137189;27;20039;-86
2022/03/20 05:07:22;;;;;;;16.60;9.85;;;2.30;99.90;;;;;;5136432;27;19926;-87
2022/03/20 05:15:16;;;;;;;22.17;10.75;;;2.30;99.90;;;;;;5134827;27;20444;-86
2022/03/20 05:17:42;;;;;;;;;;;2.20;99.90;;;;;;5119813;27;20050;-87
2022/03/20 05:20:08;;;;;;;18.63;10.63;;;2.20;99.90;;;;;;5136257;27;20010;-87
2022/03/20 05:22:40;;;;;;;17.25;10.48;;;2.20;99.90;;;;;;5136340;27;20051;-87
2022/03/20 05:25:10;;;;;;;17.15;9.85;;;2.20;99.90;;;;;;5118279;27;20421;-87
2022/03/20 05:27:36;;;;;;;20.75;10.60;;;2.20;99.90;;;;;;5136424;27;20039;-87
2022/03/20 05:30:07;;;;;;;;;;;2.10;99.90;;;;;;5136836;27;20063;-87
2022/03/20 05:32:33;;;;;;;20.17;11.05;;;2.10;99.90;;;;;;5137560;27;20282;-86
2022/03/20 05:35:00;;;;;;;18.33;10.27;;;2.10;99.90;;;;;;5136008;27;20035;-86
2022/03/20 05:37:29;;;;;;;17.67;9.15;;;2.10;99.90;;;;;;5136286;27;20117;-87
2022/03/20 05:39:54;;;;;;;21.02;9.90;;;2.10;99.90;;;;;;5136003;27;20492;-87
2022/03/20 05:42:20;;;;;;;;;;;2.10;99.90;;;;;;5135977;27;20129;-87
2022/03/20 05:44:49;;;;;;;21.33;10.90;;;2.10;99.90;;;;;;5136225;27;19923;-87
2022/03/20 05:47:15;;;;;;;;;;;2.10;99.90;;;;;;5118547;27;20043;-87
2022/03/20 05:49:41;;;;;;;15.53;10.33;;;2.20;99.90;;;;;;5135935;27;19945;-87
2022/03/20 05:52:07;;;;;;;;;;;2.20;99.90;;;;;;5136585;27;20043;-87
2022/03/20 05:54:33;;;;;;;22.13;11.60;;;2.20;99.90;;;;;;5117458;27;19927;-86
2022/03/20 05:59:43;;;;;;;19.50;11.23;;;1.50;99.90;;;;;;5117353;27;19920;-87
2022/03/20 06:02:09;;;;;;;;;;;2.20;99.90;;;;;;5131021;27;20053;-87
2022/03/20 06:04:35;;;;;;;20.52;11.43;;;2.20;99.90;;;;;;5156022;27;19919;-86
2022/03/20 06:07:01;;;;;;;21.05;12.07;;;2.20;99.90;;;;;;5156602;27;20038;-86
2022/03/20 06:09:27;;;;;;;18.88;11.52;;;2.20;99.90;;;;;;5137834;27;20050;-87
2022/03/20 06:11:53;;;;;;;;;;;2.30;99.90;;;;;;5156534;27;20047;-87
2022/03/20 06:14:19;;;;;;;18.75;10.90;;;2.30;99.90;;;;;;5156447;27;20361;-87
2022/03/20 06:16:48;;;;;;;19.60;11.18;;;2.30;99.90;;;;;;5155463;27;20109;-87
2022/03/20 06:19:15;;;;;;;19.80;10.82;;;2.30;99.90;;;;;;5138068;27;20107;-87
2022/03/20 06:21:44;;;;;;;20.85;11.73;;;2.40;99.90;;;;;;5156040;27;20053;-87
2022/03/20 06:24:10;;;;;;;17.75;11.27;;;2.40;99.90;;;;;;5155391;27;20047;-86
2022/03/20 06:26:36;;;;;;;;;;;2.50;99.90;;;;;;5154715;27;20414;-86
2022/03/20 06:29:05;;;;;;;19.67;11.90;;;2.50;99.90;;;;;;5155944;27;20001;-87
2022/03/20 06:31:31;;;;;;;18.58;12.32;;;2.60;99.90;;;;;;5155394;27;20500;-86
2022/03/20 06:34:01;;;;;;;21.55;11.93;;;2.60;99.90;;;;;;5156285;27;20050;-85
2022/03/20 06:36:27;;;;;;;19.88;11.98;;;2.60;99.90;;;;;;5132517;27;20522;-85
2022/03/20 06:38:53;;;;;;;21.45;11.82;;;2.70;99.90;;;;;;5137419;27;20079;-86
2022/03/20 06:41:19;;;;;;;;;;;2.80;99.90;;;;;;5127218;27;20081;-87
2022/03/20 06:43:45;;;;;;;21.95;12.10;;;2.80;99.90;;;;;;5155660;27;19919;-88
2022/03/20 06:46:11;;;;;;;21.52;12.32;;;2.90;99.90;;;;;;5154889;27;20045;-86
2022/03/20 06:48:37;;;;;;;20.08;12.70;;;2.90;99.90;;;;;;5122103;27;20058;-85
2022/03/20 06:51:04;;;;;;;22.52;12.13;;;2.90;99.90;;;;;;5116618;27;20119;-85
2022/03/20 06:53:30;;;;;;;19.73;12.30;;;3.00;99.90;;;;;;5143803;27;20075;-86
2022/03/20 06:55:56;;;;;;;20.48;12.70;;;3.00;99.90;;;;;;5135377;27;20039;-87
2022/03/20 06:58:23;;;;;;;;;;;3.00;99.90;;;;;;5155358;27;20082;-87
2022/03/20 07:00:50;;;;;;;22.25;13.05;;;3.10;99.90;;;;;;5136969;27;19962;-88
2022/03/20 07:03:15;;;;;;;22.42;12.57;;;3.10;99.90;;;;;;5126677;27;20418;-87
2022/03/20 07:05:41;;;;;;;;;;;3.20;99.90;;;;;;5116961;27;20055;-88
2022/03/20 07:08:07;;;;;;;22.48;12.73;;;3.20;99.90;;;;;;5140079;27;20159;-87
2022/03/20 07:10:33;;;;;;;;;;;3.30;99.90;;;;;;5150684;27;20114;-87
2022/03/20 07:15:45;;;;;;;22.30;12.13;;;3.40;99.90;;;;;;5121041;27;20059;-86
2022/03/20 07:18:12;;;;;;;24.15;13.02;;;3.40;99.90;;;;;;5133894;27;20478;-87
2022/03/20 07:20:44;;;;;;;21.17;12.38;;;3.50;99.90;;;;;;5133714;27;20050;-87
2022/03/20 07:23:11;;;;;;;20.85;12.85;;;3.50;99.90;;;;;;5115842;27;20055;-87
2022/03/20 07:31:06;;;;;;;19.75;12.65;;;3.80;99.90;;;;;;5154425;27;20039;-86
2022/03/20 07:33:32;;;;;;;;;;;3.80;99.90;;;;;;5155109;27;20053;-87
2022/03/20 07:35:59;;;;;;;21.48;12.48;;;3.80;99.90;;;;;;5154346;27;19923;-86
2022/03/20 07:38:25;;;;;;;20.70;12.15;;;3.90;99.90;;;;;;5135753;27;20039;-86
2022/03/20 07:40:50;;;;;;;;;;;4.00;99.90;;;;;;5154846;27;20082;-87
2022/03/20 07:43:16;;;;;;;20.70;12.55;;;4.10;99.90;;;;;;5141738;27;19923;-84
2022/03/20 07:45:42;;;;;;;24.48;13.73;;;4.10;99.90;;;;;;5128645;27;20085;-86
2022/03/20 07:48:08;;;;;;;;;;;4.60;99.90;;;;;;5154441;27;20070;-82
2022/03/20 07:50:38;;;;;;;23.58;12.88;;;5.40;99.90;;;;;;5154315;27;19926;-83
2022/03/20 07:53:04;;;;;;;22.48;13.32;;;6.00;99.90;;;;;;5153912;27;20042;-83
2022/03/20 07:55:30;;;;;;;22.45;13.43;;;6.50;99.90;;;;;;5135535;27;20481;-81
2022/03/20 07:57:56;;;;;;;;;;;7.10;99.90;;;;;;5134257;27;20091;-86
2022/03/20 08:00:30;;;;;;;20.25;12.32;;;7.30;99.90;;;;;;5146814;27;19919;-84
2022/03/20 08:02:59;;;;;;;;;;;7.60;99.90;;;;;;5115271;28;20119;-78
2022/03/20 08:05:31;;;;;;;20.70;12.55;;;8.10;99.90;;;;;;5133063;27;20347;-82
2022/03/20 08:08:00;;;;;;;18.60;12.35;;;8.20;99.90;;;;;;5133347;27;20043;-78
2022/03/20 08:10:26;;;;;;;21.17;12.68;;;8.40;99.90;;;;;;5132725;27;20043;-83
2022/03/20 08:12:51;;;;;;;;;;;8.60;99.90;;;;;;5140107;27;20045;-78
2022/03/20 08:15:17;;;;;;;21.75;12.65;;;8.80;99.90;;;;;;5152384;27;19927;-76
2022/03/20 08:17:44;;;;;;;;;;;8.70;99.90;;;;;;5153299;27;20122;-80
2022/03/20 08:20:10;;;;;;;18.67;12.88;;;9.10;99.90;;;;;;5154267;27;19964;-81
2022/03/20 08:22:37;;;;;;;20.30;13.32;;;9.30;99.70;;;;;;5135301;27;20068;-84
2022/03/20 08:25:03;;;;;;;18.77;12.45;;;9.50;98.90;;;;;;5157991;27;20047;-83
2022/03/20 08:27:29;;;;;;;21.88;12.82;;;9.70;98.10;;;;;;5150151;27;20047;-85
2022/03/20 08:29:58;;;;;;;;;;;10.50;98.10;;;;;;5137927;27;20051;-81
2022/03/20 08:32:25;;;;;;;19.27;12.63;;;9.60;97.70;;;;;;5136627;27;20010;-83
2022/03/20 08:34:52;;;;;;;17.65;12.93;;;9.70;98.10;;;;;;5137191;27;20047;-80
2022/03/20 08:37:18;;;;;;;19.95;12.88;;;10.10;98.30;;;;;;5138101;27;20050;-81
2022/03/20 08:39:43;;;;;;;;;;;10.20;97.20;;;;;;5158378;27;20035;-84
2022/03/20 08:42:09;;;;;;;20.23;13.73;;;10.30;96.50;;;;;;5135259;27;19932;-84
2022/03/20 08:44:34;;;;;;;;;;;10.50;96.10;;;;;;5135895;27;20039;-87
2022/03/20 08:47:01;;;;;;;19.38;12.60;;;11.00;95.90;;;;;;5132359;27;19918;-84
2022/03/20 08:49:26;;;;;;;23.05;12.82;;;11.20;95.00;;;;;;5156772;27;20388;-86
2022/03/20 08:51:52;;;;;;;;;;;12.10;94.70;;;;;;5152297;27;20135;-84
2022/03/20 08:54:20;;;;;;;20.48;13.18;;;11.60;94.30;;;;;;5156803;27;19923;-80
2022/03/20 08:56:46;;;;;;;21.15;13.32;;;11.50;92.50;;;;;;5135691;27;20442;-79
2022/03/20 08:59:11;;;;;;;;;;;11.50;93.80;;;;;;5129657;27;20047;-79
2022/03/20 09:01:37;;;;;;;19.88;14.20;;;11.50;92.10;;;;;;5127680;27;19927;-78
2022/03/20 09:04:03;;;;;;;;;;;11.50;93.60;;;;;;5130124;27;20504;-77
2022/03/20 09:06:31;;;;;;;21.23;13.88;;;11.30;92.20;;;;;;5129322;27;20021;-82
2022/03/20 09:09:00;;;;;;;20.60;13.45;;;12.10;93.50;;;;;;5149813;27;20129;-85
2022/03/20 09:11:25;;;;;;;18.85;13.80;;;12.50;92.20;;;;;;5151386;27;20092;-86
2022/03/20 09:13:50;;;;;;;;;;;12.70;91.40;;;;;;5120745;27;20054;-80
2022/03/20 09:19:04;;;;;;;20.63;14.35;;;12.60;90.50;;;;;;5152548;27;20054;-77
2022/03/20 09:21:36;;;;;;;22.02;14.68;;;12.30;89.30;;;;;;5130431;27;20050;-80
2022/03/20 09:24:03;;;;;;;24.85;15.27;;;12.40;87.50;;;;;;5132698;27;20039;-79
2022/03/20 09:26:29;;;;;;;21.08;14.50;;;12.20;90.00;;;;;;5151663;27;20042;-81
2022/03/20 09:28:55;;;;;;;;;;;13.00;89.00;;;;;;5134398;27;20046;-80
2022/03/20 09:31:21;;;;;;;22.20;15.85;;;12.70;85.50;;;;;;5150005;27;19927;-81
2022/03/20 09:33:47;;;;;;;;;;;12.90;86.40;;;;;;5151526;27;20421;-80
2022/03/20 09:36:12;;;;;;;21.20;15.15;;;13.30;85.60;;;;;;5133807;27;19977;-80
2022/03/20 09:38:39;;;;;;;20.88;15.98;;;13.20;81.70;;;;;;5121063;27;20088;-82
2022/03/20 09:41:07;;;;;;;20.95;15.02;;;13.50;81.90;;;;;;5152470;27;20497;-85
2022/03/20 09:43:34;;;;;;;21.73;15.48;;;14.10;80.40;;;;;;5152879;27;20097;-83
2022/03/20 09:46:00;;;;;;;22.58;15.07;;;14.30;77.70;;;;;;5152440;27;20046;-82
2022/03/20 09:48:27;;;;;;;25.10;15.98;;;14.30;79.30;;;;;;5146855;27;20042;-82
2022/03/20 09:50:53;;;;;;;20.13;15.05;;;14.30;74.20;;;;;;5154350;27;20045;-82
2022/03/20 09:53:20;;;;;;;22.88;16.75;;;14.30;73.40;;;;;;5143437;27;20665;-82
2022/03/20 09:55:46;;;;;;;23.73;16.60;;;14.30;75.90;;;;;;5151904;27;20049;-81
2022/03/20 09:58:11;;;;;;;21.50;15.68;;;14.60;75.70;;;;;;5131937;27;20043;-79
2022/03/20 10:00:37;;;;;;;23.02;15.88;;;14.60;70.70;;;;;;5128587;27;20073;-80
2022/03/20 10:03:22;;;;;;;22.10;16.08;;;14.70;70.20;;;;;;5131952;27;20054;-85
2022/03/20 10:06:16;;;;;;;21.73;15.32;;;15.00;66.60;;;;;;5150729;27;20046;-82
2022/03/20 10:08:56;;;;;;;23.40;15.27;;;14.50;67.50;;;;;;5149061;27;20485;-82
2022/03/20 10:11:26;;;;;;;22.02;15.57;;;14.90;70.30;;;;;;5147690;27;20039;-85
2022/03/20 10:14:15;;;;;;;22.17;16.08;;;15.00;67.60;;;;;;5151587;27;20046;-88
2022/03/20 10:16:55;;;;;;;23.27;16.42;;;14.90;65.70;;;;;;5150854;27;20121;-85
2022/03/20 10:19:23;;;;;;;21.42;16.65;;;15.10;65.50;;;;;;5130979;27;20083;-79
2022/03/20 10:21:53;;;;;;;23.67;15.48;;;14.90;67.00;;;;;;5122580;27;20049;-78
2022/03/20 10:24:22;;;;;;;22.88;16.15;;;15.10;65.90;;;;;;5139980;27;20042;-79
2022/03/20 10:27:00;;;;;;;20.88;15.20;;;14.70;62.70;;;;;;5125053;27;20050;-80
2022/03/20 10:29:27;;;;;;;23.85;17.00;;;14.50;66.00;;;;;;5124012;27;20062;-80
2022/03/20 10:31:58;;;;;;;24.83;17.10;;;14.90;66.30;;;;;;5121134;27;20046;-80
2022/03/20 10:34:26;;;;;;;21.50;15.70;;;15.40;64.20;;;;;;5130118;27;20478;-81
2022/03/20 10:36:52;;;;;;;20.15;15.60;;;15.90;64.60;;;;;;5125108;27;20053;-80
2022/03/20 10:39:21;;;;;;;21.85;16.77;;;15.40;60.90;;;;;;5151566;27;20050;-80
2022/03/20 10:41:48;;;;;;;24.10;16.13;;;15.40;62.90;;;;;;5133241;27;20047;-75
2022/03/20 10:44:21;;;;;;;24.70;16.98;;;15.20;61.50;;;;;;5146409;27;20046;-81
2022/03/20 10:46:58;;;;;;;22.80;16.02;;;15.40;62.00;;;;;;5149363;27;20074;-79
2022/03/20 10:49:27;;;;;;;24.27;16.65;;;15.60;61.50;;;;;;5142167;27;20046;-84
2022/03/20 10:52:10;;;;;;;23.13;16.98;;;15.50;60.30;;;;;;5140543;27;20043;-84
2022/03/20 10:54:46;;;;;;;21.58;16.52;;;15.10;60.70;;;;;;5146634;27;20149;-81
2022/03/20 10:57:14;;;;;;;25.48;16.95;;;15.30;58.10;;;;;;5151106;27;20038;-78
2022/03/20 10:59:42;;;;;;;23.35;16.65;;;15.50;61.20;;;;;;5146257;27;20557;-86
2022/03/20 11:02:22;;;;;;;26.20;16.88;;;16.00;60.00;;;;;;5132453;27;20483;-83
2022/03/20 11:04:49;;;;;;;23.42;17.13;;;15.90;58.00;;;;;;5136271;27;20055;-81
2022/03/20 11:07:17;;;;;;;24.80;17.55;;;16.80;59.30;;;;;;5129546;27;20053;-82
2022/03/20 11:09:51;;;;;;;23.15;17.58;;;16.60;57.20;;;;;;5137694;27;20054;-80
2022/03/20 11:12:38;;;;;;;22.67;17.60;;;16.20;56.40;;;;;;5129981;27;20151;-81
2022/03/20 11:15:06;;;;;;;23.10;16.80;;;16.20;56.90;;;;;;5130214;27;20080;-81
2022/03/20 11:17:45;;;;;;;24.13;17.80;;;16.10;58.50;;;;;;5114252;27;20118;-82
2022/03/20 11:20:16;;;;;;;25.73;17.60;;;16.10;57.60;;;;;;5143073;27;20094;-81
2022/03/20 11:22:56;;;;;;;24.85;17.33;;;16.30;57.90;;;;;;5140437;27;20043;-83
2022/03/20 11:25:30;;;;;;;24.98;17.95;;;16.00;57.00;;;;;;5144231;27;20169;-81
2022/03/20 11:28:03;;;;;;;26.30;19.05;;;16.30;56.40;;;;;;5133076;27;20506;-81
2022/03/20 11:30:31;;;;;;;23.92;17.40;;;16.70;57.20;;;;;;5116345;27;20051;-81
2022/03/20 11:33:00;;;;;;;26.08;18.05;;;17.10;56.00;;;;;;5117973;27;20089;-83
2022/03/20 11:35:30;;;;;;;23.63;17.98;;;16.90;54.80;;;;;;5121940;27;20047;-79
2022/03/20 11:38:17;;;;;;;21.95;17.02;;;16.70;55.10;;;;;;5125498;27;20051;-83
2022/03/20 11:41:05;;;;;;;24.70;17.75;;;16.70;54.40;;;;;;5112706;27;20048;-84
2022/03/20 11:43:31;;;;;;;25.45;16.98;;;16.50;54.70;;;;;;5122659;27;20054;-80
2022/03/20 11:46:34;;;;;;;23.42;17.85;;;16.10;54.30;;;;;;5121294;27;20070;-83
2022/03/20 11:49:17;;;;;;;26.23;18.02;;;16.00;55.60;;;;;;5115290;27;20086;-81
2022/03/20 11:52:10;;;;;;;24.42;17.48;;;15.80;53.80;;;;;;5112979;27;20047;-83
2022/03/20 11:54:42;;;;;;;25.27;17.15;;;15.10;57.70;;;;;;5116597;27;20058;-83
2022/03/20 11:57:26;;;;;;;25.25;17.92;;;15.10;56.70;;;;;;5120351;27;20090;-77
2022/03/20 11:59:56;;;;;;;23.02;17.35;;;15.20;57.70;;;;;;5125438;27;20051;-81
2022/03/20 12:02:50;;;;;;;27.35;18.73;;;15.40;55.70;;;;;;5117493;27;20047;-84
2022/03/20 12:05:48;;;;;;;27.48;17.55;;;15.90;57.10;;;;;;5116494;27;20051;-83
2022/03/20 12:08:35;;;;;;;26.63;19.00;;;16.60;57.10;;;;;;5118625;27;20055;-85
2022/03/20 12:11:07;;;;;;;24.55;17.33;;;16.60;56.20;;;;;;5123448;27;20047;-80
2022/03/20 12:13:48;;;;;;;28.67;19.25;;;16.90;55.70;;;;;;5128931;27;20093;-77
2022/03/20 12:16:39;;;;;;;25.65;19.63;;;16.40;54.90;;;;;;5119859;27;20791;-83
2022/03/20 12:19:13;;;;;;;22.55;17.55;;;15.90;55.60;;;;;;5108826;28;20079;-85
2022/03/20 12:22:07;;;;;;;24.20;17.27;;;16.20;55.40;;;;;;5111960;28;20047;-80
2022/03/20 12:24:35;;;;;;;26.98;18.52;;;17.20;54.70;;;;;;5111689;28;20051;-90
2022/03/20 12:27:23;;;;;;;27.40;18.85;;;15.90;54.70;;;;;;5130567;28;20100;-89
2022/03/20 12:29:55;;;;;;;26.95;19.25;;;15.60;55.30;;;;;;5141099;27;20059;-83
2022/03/20 12:32:23;;;;;;;27.27;19.10;;;15.20;54.70;;;;;;5149958;27;20134;-82
2022/03/20 12:35:41;;;;;;;24.98;18.17;;;14.50;55.50;;;;;;5130365;27;20434;-84
2022/03/20 12:38:07;;;;;;;27.67;18.67;;;13.80;56.30;;;;;;5110197;27;20066;-77
2022/03/20 12:40:34;;;;;;;24.90;17.60;;;13.30;59.40;;;;;;5144002;27;20463;-77
2022/03/20 12:43:10;;;;;;;28.35;19.33;;;13.80;61.60;;;;;;5141086;27;20055;-76
2022/03/20 12:46:02;;;;;;;25.33;18.23;;;13.60;62.20;;;;;;5132131;28;20517;-76
2022/03/20 12:48:31;;;;;;;29.05;18.52;;;13.90;57.40;;;;;;5128810;27;20059;-79
2022/03/20 12:51:11;;;;;;;29.27;19.75;;;13.90;60.40;;;;;;5140458;27;20047;-81
2022/03/20 12:53:46;;;;;;;28.20;19.20;;;13.60;59.80;;;;;;5147773;27;20042;-80
2022/03/20 12:56:32;;;;;;;25.45;17.95;;;14.00;61.30;;;;;;5150110;27;20393;-80
2022/03/20 12:58:58;;;;;;;29.55;19.05;;;14.70;59.30;;;;;;5146541;27;20051;-80
2022/03/20 13:01:26;;;;;;;25.48;19.05;;;14.00;60.00;;;;;;5140155;27;20044;-79
2022/03/20 13:03:51;;;;;;;28.50;18.55;;;14.00;60.50;;;;;;5122137;27;20085;-79
2022/03/20 13:06:17;;;;;;;;;;;13.70;60.30;;;;;;5138856;27;20473;-76
2022/03/20 13:08:46;;;;;;;28.05;17.88;;;13.40;60.20;;;;;;5109200;27;19927;-75
2022/03/20 13:14:12;;;;;;;24.52;16.17;;;12.90;60.70;;;;;;5143780;27;20047;-76
2022/03/20 13:16:58;;;;;;;28.55;18.40;;;12.90;61.30;;;;;;5139126;27;20449;-76
2022/03/20 13:19:28;;;;;;;26.80;17.48;;;12.90;61.60;;;;;;5135790;27;20038;-75
2022/03/20 13:21:55;;;;;;;25.17;16.92;;;12.80;63.00;;;;;;5143359;27;20411;-75
2022/03/20 13:24:29;;;;;;;27.17;18.52;;;12.80;64.10;;;;;;5142827;27;20043;-76
2022/03/20 13:26:57;;;;;;;26.80;18.40;;;13.10;64.50;;;;;;5152038;27;20159;-76
2022/03/20 13:29:23;;;;;;;25.58;17.48;;;13.40;63.30;;;;;;5135891;27;20062;-77
2022/03/20 13:31:58;;;;;;;;;;;12.90;62.40;;;;;;5145656;27;20047;-76
2022/03/20 13:34:24;;;;;;;26.88;18.25;;;12.80;62.80;;;;;;5144307;27;20021;-76
2022/03/20 13:36:49;;;;;;;;;;;12.90;63.20;;;;;;5136631;27;20142;-76
2022/03/20 13:39:15;;;;;;;26.95;17.10;;;12.70;64.60;;;;;;5138640;27;19969;-74
2022/03/20 13:41:42;;;;;;;;;;;12.50;64.00;;;;;;5132366;27;20386;-75
2022/03/20 13:44:09;;;;;;;30.27;19.67;;;12.30;65.90;;;;;;5131813;27;19976;-76